Time;durP1;ratioP1;P1;durP2;ratioP2;P2;SDS_P1;SDS_P2;PMS_P1;PMS_P2;Temp;Humidity;BMP_temperature;BMP_pressure;BME280_temperature;BME280_humidity;BME280_pressure;Samples;Min_cycle;Max_cycle;Signal;HPM_P1;HPM_P2
2023/02/20 00:01:56;;;;;;;8.63;5.00;;;;;;;10.49;89.21;99244.75;4198924;28;20642;-89
2023/02/20 00:03:59;;;;;;;6.90;4.03;;;;;;;10.49;89.88;99243.88;4216844;28;20634;-89
2023/02/20 00:06:02;;;;;;;12.87;5.13;;;;;;;10.49;89.54;99249.09;4187595;28;20667;-89
2023/02/20 00:08:05;;;;;;;9.53;4.30;;;;;;;10.50;89.83;99245.59;4200517;28;21059;-88
2023/02/20 00:10:09;;;;;;;7.47;5.57;;;;;;;10.49;90.80;99236.94;4205774;28;20623;-88
2023/02/20 00:12:12;;;;;;;10.33;4.77;;;;;;;10.43;90.16;99224.19;4210221;28;20698;-89
2023/02/20 00:14:15;;;;;;;7.90;4.63;;;;;;;10.40;90.53;99226.94;4219097;28;21073;-88
2023/02/20 00:16:19;;;;;;;8.60;5.00;;;;;;;10.38;89.82;99225.31;4218578;28;20621;-89
2023/02/20 00:18:24;;;;;;;10.57;4.87;;;;;;;10.37;90.17;99226.22;4202610;28;20639;-89
2023/02/20 00:20:29;;;;;;;6.43;4.80;;;;;;;10.34;89.17;99223.78;4210389;28;20654;-89
2023/02/20 00:22:32;;;;;;;9.43;4.77;;;;;;;10.29;89.39;99217.13;4203416;28;20615;-89
2023/02/20 00:24:35;;;;;;;6.50;4.10;;;;;;;10.26;89.58;99225.09;4209806;28;20616;-88
2023/02/20 00:26:38;;;;;;;8.90;5.20;;;;;;;10.22;89.90;99224.38;4208886;28;20639;-89
2023/02/20 00:28:42;;;;;;;8.57;4.97;;;;;;;10.21;90.46;99227.91;4218705;28;20622;-89
2023/02/20 00:30:45;;;;;;;7.70;4.20;;;;;;;10.20;89.40;99226.22;4184834;28;20619;-89
2023/02/20 00:32:51;;;;;;;7.43;4.50;;;;;;;10.20;89.72;99233.22;4208514;28;20639;-89
2023/02/20 00:34:56;;;;;;;7.37;4.40;;;;;;;10.19;90.18;99240.16;4218946;28;20609;-89
2023/02/20 00:36:59;;;;;;;8.00;4.57;;;;;;;10.20;89.65;99249.69;4200603;28;20662;-89
2023/02/20 00:39:02;;;;;;;10.73;4.90;;;;;;;10.19;89.76;99250.59;4197228;28;21132;-88
2023/02/20 00:41:06;;;;;;;7.40;4.80;;;;;;;10.20;90.19;99252.28;4187605;28;20746;-89
2023/02/20 00:43:09;;;;;;;11.30;4.97;;;;;;;10.18;89.25;99259.34;4187427;28;20719;-88
2023/02/20 00:45:12;;;;;;;6.70;5.30;;;;;;;10.15;89.96;99253.41;4186897;28;20721;-88
2023/02/20 00:47:16;;;;;;;7.97;4.67;;;;;;;10.13;90.63;99261.34;4201675;28;20615;-89
2023/02/20 00:49:20;;;;;;;7.37;4.70;;;;;;;10.13;89.47;99257.88;4202910;28;20682;-89
2023/02/20 00:51:23;;;;;;;9.50;5.23;;;;;;;10.10;89.66;99261.50;4203633;28;20658;-89
2023/02/20 00:53:26;;;;;;;6.37;4.70;;;;;;;10.10;90.56;99261.50;4187051;28;20621;-89
2023/02/20 00:55:30;;;;;;;9.03;4.80;;;;;;;10.10;90.41;99251.06;4195438;28;20623;-89
2023/02/20 00:57:33;;;;;;;6.40;4.70;;;;;;;10.10;90.73;99247.59;4221553;28;20640;-89
2023/02/20 00:59:36;;;;;;;9.07;5.00;;;;;;;10.08;90.05;99246.84;4181543;28;22832;-89
2023/02/20 01:01:39;;;;;;;10.35;5.15;;;;;;;10.06;90.29;99243.47;4201286;28;20671;-88
2023/02/20 01:03:42;;;;;;;9.23;5.03;;;;;;;10.04;90.24;99245.28;4195066;28;20276;-89
2023/02/20 01:05:47;;;;;;;11.37;4.80;;;;;;;10.01;90.67;99250.63;4203415;28;21024;-89
2023/02/20 01:07:50;;;;;;;12.80;5.20;;;;;;;9.97;90.12;99252.56;4201910;28;20646;-88
2023/02/20 01:09:53;;;;;;;8.13;5.77;;;;;;;9.96;89.93;99250.84;4202587;28;20635;-89
2023/02/20 01:11:56;;;;;;;10.60;5.37;;;;;;;9.94;90.17;99244.88;4196854;28;20661;-88
2023/02/20 01:13:59;;;;;;;7.40;4.63;;;;;;;9.91;90.11;99245.00;4204248;28;20668;-88
2023/02/20 01:16:02;;;;;;;8.23;4.60;;;;;;;9.88;90.12;99233.88;4208271;28;20726;-89
2023/02/20 01:18:06;;;;;;;10.50;5.23;;;;;;;9.84;89.83;99226.28;4207436;28;20619;-89
2023/02/20 01:20:10;;;;;;;7.75;4.57;;;;;;;9.81;89.70;99234.22;4186293;28;20695;-89
2023/02/20 01:22:15;;;;;;;6.60;4.43;;;;;;;9.77;89.82;99230.91;4197039;28;20227;-87
2023/02/20 01:24:18;;;;;;;8.40;4.60;;;;;;;9.67;89.55;99226.22;4206584;28;20205;-87
2023/02/20 01:26:22;;;;;;;11.05;5.07;;;;;;;9.55;90.20;99232.84;4193010;28;20620;-87
2023/02/20 01:28:26;;;;;;;11.17;5.30;;;;;;;9.48;90.61;99228.81;4196486;28;20274;-88
2023/02/20 01:30:29;;;;;;;8.40;4.73;;;;;;;9.44;91.22;99224.69;4216504;28;20677;-88
2023/02/20 01:32:32;;;;;;;6.82;4.70;;;;;;;9.44;91.12;99231.63;4186996;28;20736;-87
2023/02/20 01:34:35;;;;;;;12.30;5.20;;;;;;;9.45;91.02;99241.13;4211569;28;20212;-88
2023/02/20 01:36:38;;;;;;;8.80;5.23;;;;;;;9.40;90.88;99235.31;4191383;28;20210;-88
2023/02/20 01:38:43;;;;;;;11.00;4.90;;;;;;;9.29;91.00;99232.34;4191924;28;20704;-87
2023/02/20 01:40:47;;;;;;;11.55;5.35;;;;;;;9.30;90.77;99227.97;4202329;28;20666;-88
2023/02/20 01:42:50;;;;;;;8.00;5.00;;;;;;;9.32;91.26;99233.94;4193843;28;20295;-86
2023/02/20 01:44:54;;;;;;;9.17;4.90;;;;;;;9.33;91.61;99233.88;4196657;28;21145;-87
2023/02/20 01:46:58;;;;;;;8.80;5.07;;;;;;;9.32;91.10;99239.16;4199142;28;20639;-86
2023/02/20 01:49:04;;;;;;;9.73;4.50;;;;;;;9.33;91.21;99233.03;4192582;28;20206;-87
2023/02/20 01:51:08;;;;;;;9.77;4.90;;;;;;;9.33;91.53;99227.84;4221798;28;20249;-88
2023/02/20 01:53:13;;;;;;;7.55;4.35;;;;;;;9.33;91.14;99228.66;4200335;28;20665;-87
2023/02/20 01:55:22;;;;;;;9.13;4.95;;;;;;;9.34;91.05;99232.16;4207217;28;20217;-87
2023/02/20 01:57:28;;;;;;;8.75;4.43;;;;;;;9.30;90.84;99226.22;4195000;28;20695;-87
2023/02/20 01:59:33;;;;;;;10.73;5.00;;;;;;;9.28;90.40;99219.41;4194994;28;20248;-87
2023/02/20 02:01:36;;;;;;;5.67;4.47;;;;;;;9.21;90.34;99211.00;4187364;28;20664;-87
2023/02/20 02:03:43;;;;;;;8.98;4.40;;;;;;;9.15;89.71;99216.47;4190375;28;21202;-87
2023/02/20 02:05:49;;;;;;;5.50;4.25;;;;;;;9.13;90.32;99207.06;4190503;28;20206;-87
2023/02/20 02:07:52;;;;;;;8.45;4.50;;;;;;;9.13;90.05;99209.69;4190915;28;20197;-87
2023/02/20 02:09:58;;;;;;;10.03;4.53;;;;;;;9.08;90.86;99212.47;4203981;28;20205;-86
2023/02/20 02:12:05;;;;;;;6.65;4.32;;;;;;;9.03;90.27;99211.81;4205369;28;20625;-87
2023/02/20 02:14:08;;;;;;;9.55;4.95;;;;;;;9.02;90.10;99207.56;4212307;28;20791;-87
2023/02/20 02:16:20;;;;;;;10.15;5.10;;;;;;;9.00;90.38;99198.13;4218867;28;20211;-87
2023/02/20 02:18:41;;;;;;;8.60;5.30;;;;;;;8.99;91.09;99206.81;4207337;28;20202;-87
2023/02/20 02:21:15;;;;;;;8.02;4.63;;;;;;;8.99;90.90;99196.41;4200172;28;20703;-87
2023/02/20 02:23:54;;;;;;;7.70;4.25;;;;;;;8.96;90.80;99200.00;4191436;28;20202;-87
2023/02/20 02:26:00;;;;;;;10.32;4.40;;;;;;;8.97;91.20;99204.28;4194036;28;20209;-87
2023/02/20 02:28:27;;;;;;;8.90;5.13;;;;;;;8.94;90.66;99201.84;4198967;28;20216;-87
2023/02/20 02:30:47;;;;;;;11.35;4.07;;;;;;;8.93;89.63;99205.34;4208640;28;20694;-87
2023/02/20 02:33:04;;;;;;;6.28;4.45;;;;;;;8.91;90.61;99208.91;4193226;28;20204;-88
2023/02/20 02:35:25;;;;;;;8.32;4.63;;;;;;;8.89;90.14;99208.16;4217076;28;20278;-87
2023/02/20 02:37:33;;;;;;;7.05;4.60;;;;;;;8.89;89.71;99202.94;4195286;28;20205;-87
2023/02/20 02:39:43;;;;;;;8.02;4.53;;;;;;;8.87;90.38;99209.13;4191768;28;20732;-87
2023/02/20 02:41:50;;;;;;;8.80;5.07;;;;;;;8.86;90.45;99202.25;4192047;28;20276;-87
2023/02/20 02:43:57;;;;;;;7.97;4.73;;;;;;;8.84;90.22;99202.31;4182565;28;20204;-88
2023/02/20 02:46:04;;;;;;;8.65;4.82;;;;;;;8.82;89.32;99201.53;4191605;28;20698;-87
2023/02/20 02:48:13;;;;;;;8.75;4.30;;;;;;;8.80;89.76;99198.16;4201129;28;20249;-87
2023/02/20 02:50:20;;;;;;;9.10;4.93;;;;;;;8.80;90.48;99192.13;4191792;28;20205;-88
2023/02/20 02:52:45;;;;;;;7.30;5.85;;;;;;;8.78;89.65;99191.31;4194923;28;20626;-87
2023/02/20 02:54:50;;;;;;;6.70;4.87;;;;;;;8.75;90.00;99186.25;4202001;28;20291;-90
2023/02/20 02:56:55;;;;;;;7.80;5.07;;;;;;;8.74;90.09;99195.81;4215510;28;20621;-88
2023/02/20 02:58:58;;;;;;;10.93;5.40;;;;;;;8.72;90.64;99186.38;4205027;28;20212;-88
2023/02/20 03:01:02;;;;;;;11.87;6.20;;;;;;;8.65;89.22;99182.38;4205283;28;20956;-87
2023/02/20 03:03:09;;;;;;;11.18;4.90;;;;;;;8.53;89.02;99181.13;4205976;28;20626;-88
2023/02/20 03:05:15;;;;;;;7.80;5.78;;;;;;;8.38;90.44;99169.72;4186007;28;20206;-88
2023/02/20 03:07:19;;;;;;;10.43;4.97;;;;;;;8.23;90.58;99172.97;4189461;28;20205;-87
2023/02/20 03:09:26;;;;;;;7.15;5.07;;;;;;;8.16;91.44;99174.97;4204859;28;20204;-88
2023/02/20 03:11:33;;;;;;;9.30;5.90;;;;;;;8.04;91.73;99175.44;4185753;28;20205;-87
2023/02/20 03:16:01;;;;;;;8.95;5.15;;;;;;;7.89;93.79;99185.59;4189744;28;20316;-87
2023/02/20 03:18:14;;;;;;;9.88;4.65;;;;;;;7.88;93.23;99188.25;4188936;28;20575;-89
2023/02/20 03:20:19;;;;;;;7.55;4.60;;;;;;;7.90;92.69;99186.44;4221847;28;20262;-88
2023/02/20 03:22:25;;;;;;;7.40;4.95;;;;;;;7.93;93.77;99191.53;4200752;28;20232;-87
2023/02/20 03:24:29;;;;;;;7.70;5.38;;;;;;;7.96;92.16;99186.22;4202013;28;20205;-87
2023/02/20 03:26:35;;;;;;;7.30;4.32;;;;;;;7.96;93.52;99187.03;4203408;28;20209;-88
2023/02/20 03:28:41;;;;;;;6.82;4.95;;;;;;;7.99;93.38;99192.94;4193143;28;20746;-88
2023/02/20 03:30:49;;;;;;;10.18;5.18;;;;;;;8.03;91.78;99191.94;4207933;28;20200;-88
2023/02/20 03:45:03;;;;;;;14.23;6.05;;;;;;;8.04;94.11;99197.97;4206751;28;20208;-88
2023/02/20 03:47:09;;;;;;;11.95;5.65;;;;;;;7.99;93.83;99195.53;4203813;28;20212;-88
2023/02/20 03:49:14;;;;;;;9.32;6.18;;;;;;;7.96;94.44;99196.59;4191149;28;20204;-87
2023/02/20 03:51:19;;;;;;;11.52;5.47;;;;;;;7.99;93.83;99195.53;4184809;28;20209;-88
2023/02/20 03:53:28;;;;;;;11.68;5.65;;;;;;;8.09;93.46;99194.28;4201620;28;20237;-88
2023/02/20 03:55:32;;;;;;;9.80;6.15;;;;;;;8.17;95.05;99194.84;4203976;28;20303;-88
2023/02/20 03:57:43;;;;;;;12.18;6.60;;;;;;;8.26;94.79;99191.84;4205294;28;20202;-87
2023/02/20 03:59:49;;;;;;;12.88;6.55;;;;;;;8.34;94.05;99194.13;4209944;28;20591;-88
2023/02/20 04:01:56;;;;;;;11.73;5.65;;;;;;;8.41;94.86;99195.59;4202147;28;20229;-88
2023/02/20 04:03:59;;;;;;;11.00;5.85;;;;;;;8.47;93.51;99190.97;4187651;28;20782;-88
2023/02/20 04:06:04;;;;;;;12.98;6.40;;;;;;;8.52;93.84;99202.00;4200210;28;20213;-87
2023/02/20 04:08:14;;;;;;;9.80;5.80;;;;;;;8.56;93.25;99194.00;4202216;28;20221;-88
2023/02/20 04:10:22;;;;;;;10.80;6.53;;;;;;;8.62;93.51;99203.31;4201861;28;20204;-87
2023/02/20 04:12:27;;;;;;;10.40;5.90;;;;;;;8.70;93.25;99198.63;4202927;28;20208;-88
2023/02/20 04:14:32;;;;;;;11.43;5.45;;;;;;;8.76;93.50;99203.56;4209313;28;20232;-88
2023/02/20 04:16:50;;;;;;;9.13;6.10;;;;;;;8.80;92.78;99199.91;4211313;28;20634;-88
2023/02/20 04:18:54;;;;;;;10.57;6.00;;;;;;;8.78;92.39;99192.19;4183962;28;20205;-88
2023/02/20 04:20:58;;;;;;;8.80;5.30;;;;;;;8.79;92.20;99185.22;4184241;28;20205;-89
2023/02/20 04:23:15;;;;;;;8.68;5.30;;;;;;;8.85;92.96;99190.16;4203894;28;20326;-88
2023/02/20 04:25:24;;;;;;;9.43;6.32;;;;;;;8.88;92.29;99190.00;4201180;28;20208;-88
2023/02/20 04:27:28;;;;;;;10.45;5.80;;;;;;;8.93;92.81;99189.75;4190892;28;20231;-88
2023/02/20 04:29:34;;;;;;;7.80;6.22;;;;;;;8.95;91.77;99190.50;4209133;28;20253;-88
2023/02/20 04:31:37;;;;;;;10.95;5.63;;;;;;;8.98;91.58;99195.56;4200807;28;20251;-88
2023/02/20 04:33:40;;;;;;;6.65;5.38;;;;;;;8.96;92.04;99184.41;4202517;28;20240;-89
2023/02/20 04:35:51;;;;;;;10.65;5.65;;;;;;;8.93;91.76;99176.75;4204418;28;20201;-88
2023/02/20 04:37:55;;;;;;;9.73;5.30;;;;;;;8.95;92.16;99189.69;4189734;28;20216;-90
2023/02/20 04:39:58;;;;;;;6.55;5.75;;;;;;;8.95;91.93;99180.09;4203776;28;20232;-89
2023/02/20 04:42:02;;;;;;;10.15;5.97;;;;;;;8.97;91.13;99180.03;4196871;28;20221;-89
2023/02/20 04:46:28;;;;;;;8.63;5.90;;;;;;;9.00;91.32;99193.75;4185767;28;20785;-88
2023/02/20 04:48:31;;;;;;;9.65;5.70;;;;;;;9.05;91.68;99206.53;4206539;28;20668;-89
2023/02/20 04:50:35;;;;;;;8.98;5.57;;;;;;;9.08;91.03;99196.00;4202661;28;20262;-89
2023/02/20 04:52:40;;;;;;;9.10;5.68;;;;;;;9.12;90.82;99207.97;4205258;28;20211;-89
2023/02/20 04:54:43;;;;;;;9.83;6.10;;;;;;;9.11;90.60;99196.72;4201310;28;20212;-88
2023/02/20 04:56:49;;;;;;;12.88;5.55;;;;;;;9.00;90.46;99201.53;4187646;28;20708;-89
2023/02/20 04:58:52;;;;;;;6.35;4.47;;;;;;;9.04;90.44;99192.72;4188464;28;20681;-88
2023/02/20 05:00:57;;;;;;;6.53;4.40;;;;;;;9.09;90.69;99197.72;4203486;28;20217;-89
2023/02/20 05:03:02;;;;;;;8.90;4.95;;;;;;;9.11;90.81;99191.53;4214435;28;20559;-89
2023/02/20 05:05:07;;;;;;;7.47;4.50;;;;;;;9.09;89.99;99190.72;4203881;28;20295;-89
2023/02/20 05:07:10;;;;;;;7.78;4.90;;;;;;;9.08;90.27;99191.66;4198781;28;20205;-89
2023/02/20 05:09:13;;;;;;;8.68;5.47;;;;;;;9.09;89.73;99182.94;4197435;28;20211;-90
2023/02/20 05:11:17;;;;;;;11.85;5.60;;;;;;;9.11;90.34;99190.66;4218461;28;20354;-89
2023/02/20 05:13:20;;;;;;;8.93;4.93;;;;;;;9.13;89.33;99192.28;4201767;28;20213;-88
2023/02/20 05:15:23;;;;;;;8.43;5.20;;;;;;;9.16;90.10;99194.75;4215654;28;20649;-89
2023/02/20 05:17:26;;;;;;;12.32;5.25;;;;;;;9.18;89.99;99199.91;4201823;28;20229;-89
2023/02/20 05:19:30;;;;;;;8.40;4.75;;;;;;;9.11;89.87;99196.72;4196982;28;20211;-89
2023/02/20 05:23:54;;;;;;;6.90;5.40;;;;;;;9.12;89.92;99202.78;4203504;28;20227;-89
2023/02/20 05:25:57;;;;;;;6.82;5.55;;;;;;;9.10;90.79;99189.84;4190244;28;20219;-88
2023/02/20 05:28:00;;;;;;;8.82;5.10;;;;;;;9.12;90.50;99188.00;4200393;28;20545;-88
2023/02/20 05:30:04;;;;;;;7.68;4.95;;;;;;;9.14;90.12;99190.53;4210618;28;20248;-88
2023/02/20 05:32:08;;;;;;;7.60;4.03;;;;;;;9.14;89.94;99190.53;4189081;28;20210;-89
2023/02/20 05:34:11;;;;;;;8.63;4.47;;;;;;;9.10;89.77;99189.00;4197126;28;21023;-88
2023/02/20 05:36:16;;;;;;;8.02;4.43;;;;;;;9.08;89.94;99191.66;4189025;28;20216;-88
2023/02/20 05:38:19;;;;;;;6.13;4.10;;;;;;;9.09;90.06;99190.72;4188704;28;20194;-88
2023/02/20 05:40:23;;;;;;;7.55;4.60;;;;;;;9.09;89.93;99203.75;4219180;28;20192;-89
2023/02/20 05:42:26;;;;;;;9.13;4.35;;;;;;;9.07;89.98;99194.34;4204984;28;20217;-89
2023/02/20 05:44:29;;;;;;;6.43;4.53;;;;;;;9.06;90.12;99188.28;4198061;28;20736;-89
2023/02/20 05:46:32;;;;;;;9.40;4.95;;;;;;;9.06;90.32;99193.47;4217720;28;20295;-88
2023/02/20 05:48:35;;;;;;;8.02;4.20;;;;;;;9.10;90.05;99197.63;4209582;28;20204;-89
2023/02/20 05:50:38;;;;;;;7.07;4.90;;;;;;;9.12;90.31;99203.59;4191051;28;20216;-88
2023/02/20 05:52:43;;;;;;;11.38;6.10;;;;;;;9.12;90.22;99198.41;4194940;28;21195;-89
2023/02/20 05:54:47;;;;;;;8.23;4.80;;;;;;;9.10;90.20;99191.59;4221459;28;20217;-89
2023/02/20 05:56:51;;;;;;;5.93;4.72;;;;;;;9.05;90.08;99189.19;4205041;28;20208;-88
2023/02/20 05:58:54;;;;;;;10.65;5.63;;;;;;;9.05;90.05;99189.19;4220032;28;20204;-87
2023/02/20 06:00:57;;;;;;;11.15;5.22;;;;;;;9.05;90.24;99184.00;4218579;28;20204;-89
2023/02/20 06:03:00;;;;;;;6.95;5.65;;;;;;;9.05;90.36;99190.94;4206310;28;20253;-88
2023/02/20 06:05:04;;;;;;;8.57;4.82;;;;;;;9.03;90.28;99191.00;4202569;28;20743;-88
2023/02/20 06:07:09;;;;;;;7.30;4.90;;;;;;;9.04;90.05;99191.88;4220058;28;20239;-89
2023/02/20 06:09:15;;;;;;;7.55;4.72;;;;;;;9.05;89.67;99201.34;4209767;28;20712;-89
2023/02/20 06:11:18;;;;;;;11.35;5.50;;;;;;;9.06;89.97;99196.06;4205274;28;20208;-88
2023/02/20 06:13:21;;;;;;;7.68;5.05;;;;;;;9.06;90.38;99198.69;4220071;28;20223;-89
2023/02/20 06:15:24;;;;;;;7.50;4.90;;;;;;;9.03;90.29;99196.22;4194331;28;20301;-88
2023/02/20 06:17:29;;;;;;;8.75;5.00;;;;;;;9.01;90.62;99195.44;4204439;28;20680;-88
2023/02/20 06:19:32;;;;;;;7.57;5.55;;;;;;;8.98;90.47;99195.56;4205905;28;20586;-89
2023/02/20 06:21:36;;;;;;;14.25;5.63;;;;;;;8.99;90.53;99199.00;4215639;28;20209;-88
2023/02/20 06:23:39;;;;;;;6.28;5.43;;;;;;;8.99;89.74;99202.47;4202794;28;20216;-89
2023/02/20 06:25:44;;;;;;;6.22;5.30;;;;;;;8.97;90.63;99199.09;4201236;28;20211;-89
2023/02/20 06:27:47;;;;;;;7.63;5.05;;;;;;;8.99;89.86;99199.88;4213099;28;20637;-89
2023/02/20 06:29:50;;;;;;;7.35;4.80;;;;;;;8.98;89.50;99198.19;4211651;28;20208;-89
2023/02/20 06:31:53;;;;;;;7.22;4.35;;;;;;;8.99;89.37;99205.09;4189108;28;20669;-89
2023/02/20 06:33:57;;;;;;;7.70;4.70;;;;;;;8.99;88.55;99212.88;4227331;28;20652;-88
2023/02/20 06:36:00;;;;;;;5.93;4.60;;;;;;;8.99;89.31;99202.47;4187253;28;21215;-89
2023/02/20 06:38:03;;;;;;;6.63;4.70;;;;;;;8.95;88.75;99206.13;4188641;28;20368;-88
2023/02/20 06:40:07;;;;;;;8.38;5.50;;;;;;;8.92;88.83;99206.25;4201203;28;20700;-89
2023/02/20 06:42:11;;;;;;;7.43;4.78;;;;;;;8.84;88.42;99217.06;4189520;28;20231;-89
2023/02/20 06:44:15;;;;;;;7.10;4.43;;;;;;;8.84;89.13;99211.84;4207785;28;20240;-88
2023/02/20 06:46:18;;;;;;;8.38;4.97;;;;;;;8.82;88.81;99205.88;4207279;28;20217;-88
2023/02/20 06:48:21;;;;;;;12.05;5.20;;;;;;;8.78;89.05;99207.78;4200043;28;20252;-88
2023/02/20 06:50:24;;;;;;;6.50;4.65;;;;;;;8.78;89.48;99218.19;4196181;28;20236;-87
2023/02/20 06:52:27;;;;;;;7.65;4.38;;;;;;;8.83;88.97;99226.63;4201114;28;20201;-88
2023/02/20 06:54:30;;;;;;;6.40;4.47;;;;;;;8.90;88.75;99222.88;4207941;28;20209;-88
2023/02/20 06:56:35;;;;;;;11.07;5.20;;;;;;;8.93;89.05;99231.38;4194209;28;20206;-88
2023/02/20 06:58:39;;;;;;;5.55;4.95;;;;;;;8.99;89.05;99222.44;4221289;28;20705;-87
2023/02/20 07:00:43;;;;;;;11.05;6.35;;;;;;;9.00;89.06;99219.75;4199258;28;20211;-87
2023/02/20 07:02:46;;;;;;;10.50;4.88;;;;;;;9.00;89.54;99227.56;4217871;28;20541;-88
2023/02/20 07:04:49;;;;;;;9.73;4.20;;;;;;;9.01;88.82;99231.88;4224665;28;20277;-88
2023/02/20 07:06:53;;;;;;;7.00;4.28;;;;;;;9.01;88.51;99229.25;4199487;28;20699;-89
2023/02/20 07:08:56;;;;;;;8.02;4.88;;;;;;;9.01;88.71;99228.44;4190822;28;20211;-88
2023/02/20 07:10:59;;;;;;;9.98;5.15;;;;;;;8.97;87.66;99235.50;4204129;28;20698;-88
2023/02/20 07:13:04;;;;;;;6.18;4.38;;;;;;;8.92;88.88;99223.63;4213932;28;20208;-88
2023/02/20 07:15:10;;;;;;;12.73;6.72;;;;;;;8.97;88.01;99239.88;4205356;28;20219;-88
2023/02/20 07:17:13;;;;;;;7.95;5.15;;;;;;;8.99;88.69;99235.44;4184810;28;20209;-88
2023/02/20 07:19:17;;;;;;;11.03;4.80;;;;;;;9.00;88.17;99234.53;4211509;28;20209;-87
2023/02/20 07:21:20;;;;;;;10.48;5.43;;;;;;;9.01;88.15;99239.66;4219816;28;20634;-88
2023/02/20 07:23:23;;;;;;;8.07;4.70;;;;;;;9.00;88.13;99240.56;4179600;28;20476;-88
2023/02/20 07:25:26;;;;;;;11.48;4.95;;;;;;;8.98;88.00;99245.00;4221864;28;20551;-88
2023/02/20 07:27:29;;;;;;;12.43;6.40;;;;;;;9.02;87.44;99237.91;4220687;28;20561;-88
2023/02/20 07:29:32;;;;;;;11.43;6.10;;;;;;;9.15;87.94;99239.91;4211489;28;20212;-88
2023/02/20 07:31:37;;;;;;;10.15;5.95;;;;;;;9.42;87.31;99242.09;4186294;28;20221;-88
2023/02/20 07:33:42;;;;;;;16.17;7.40;;;;;;;9.77;87.96;99241.31;4221298;28;20258;-87
2023/02/20 07:35:46;;;;;;;9.93;6.57;;;;;;;10.05;86.25;99242.59;4200421;28;20218;-88
2023/02/20 07:37:50;;;;;;;7.93;6.10;;;;;;;10.26;86.83;99244.16;4189049;28;20612;-88
2023/02/20 07:39:53;;;;;;;7.90;5.25;;;;;;;10.37;85.68;99247.97;4220594;28;20210;-88
2023/02/20 07:41:56;;;;;;;7.10;5.70;;;;;;;10.44;84.82;99245.88;4221117;28;20219;-88
2023/02/20 07:44:14;;;;;;;7.87;4.90;;;;;;;10.62;84.59;99250.19;4191146;28;20663;-88
2023/02/20 07:46:17;;;;;;;8.63;4.75;;;;;;;10.80;84.85;99253.53;4205166;28;21230;-88
2023/02/20 07:48:24;;;;;;;5.25;4.03;;;;;;;11.03;83.70;99250.59;4182047;28;20209;-88
2023/02/20 07:50:27;;;;;;;10.57;5.10;;;;;;;11.19;82.35;99254.13;4190789;28;20210;-88
2023/02/20 07:52:30;;;;;;;7.73;4.90;;;;;;;11.36;84.24;99252.28;4205447;28;21374;-88
2023/02/20 07:54:33;;;;;;;10.88;5.00;;;;;;;11.37;82.38;99247.94;4201137;28;20638;-88
2023/02/20 07:56:36;;;;;;;6.65;4.22;;;;;;;11.25;81.12;99245.13;4220170;28;20208;-88
2023/02/20 07:58:40;;;;;;;10.37;5.10;;;;;;;11.33;82.22;99246.41;4194478;28;20205;-88
2023/02/20 08:00:43;;;;;;;7.23;5.47;;;;;;;11.38;82.35;99250.47;4198936;28;20620;-88
2023/02/20 08:02:46;;;;;;;7.50;4.73;;;;;;;11.23;80.33;99245.22;4203709;28;20627;-88
2023/02/20 08:04:51;;;;;;;7.50;4.70;;;;;;;11.45;82.08;99250.97;4186142;28;20652;-89
2023/02/20 08:06:54;;;;;;;9.13;4.88;;;;;;;11.68;80.55;99242.78;4184021;28;20620;-88
2023/02/20 08:08:57;;;;;;;6.63;4.83;;;;;;;11.89;79.96;99250.28;4186849;28;20220;-88
2023/02/20 08:11:00;;;;;;;7.93;4.80;;;;;;;12.02;80.19;99252.13;4191237;28;20662;-88
2023/02/20 08:13:12;;;;;;;6.50;4.30;;;;;;;12.12;79.42;99242.84;4194055;28;20623;-89
2023/02/20 08:15:15;;;;;;;7.97;4.63;;;;;;;12.15;78.61;99228.75;4216272;28;21285;-88
2023/02/20 08:17:18;;;;;;;9.20;5.47;;;;;;;12.16;77.28;99233.06;4208193;28;21120;-89
2023/02/20 08:19:21;;;;;;;6.53;4.93;;;;;;;12.21;78.08;99236.25;4211594;28;20637;-89
2023/02/20 08:21:26;;;;;;;8.20;5.37;;;;;;;12.22;78.19;99235.34;4196489;28;20672;-89
2023/02/20 08:23:30;;;;;;;7.47;4.87;;;;;;;12.26;77.13;99228.06;4193335;28;20645;-89
2023/02/20 08:25:34;;;;;;;6.70;4.73;;;;;;;12.32;77.97;99232.09;4204724;28;20658;-89
2023/02/20 08:27:42;;;;;;;6.80;4.90;;;;;;;12.29;78.68;99232.28;4210386;28;20621;-89
2023/02/20 08:29:45;;;;;;;7.37;4.50;;;;;;;12.19;79.50;99233.72;4202644;28;20626;-88
2023/02/20 08:31:49;;;;;;;7.90;4.97;;;;;;;12.14;78.01;99227.09;4222039;28;20699;-89
2023/02/20 08:33:55;;;;;;;10.60;4.60;;;;;;;12.05;78.58;99232.81;4191876;28;20602;-88
2023/02/20 08:35:59;;;;;;;5.97;4.40;;;;;;;12.21;77.84;99231.03;4200394;28;21237;-89
2023/02/20 08:38:05;;;;;;;7.03;5.00;;;;;;;12.38;78.68;99235.22;4190918;28;20639;-90
2023/02/20 08:40:10;;;;;;;8.33;4.40;;;;;;;12.46;76.87;99233.03;4207030;28;20799;-89
2023/02/20 08:42:15;;;;;;;6.00;4.37;;;;;;;12.66;77.82;99229.22;4187629;28;21218;-89
2023/02/20 08:44:19;;;;;;;7.30;4.80;;;;;;;12.79;76.49;99234.50;4193120;28;21069;-89
2023/02/20 08:46:26;;;;;;;8.23;4.43;;;;;;;12.76;76.33;99229.47;4191062;28;20644;-89
2023/02/20 08:48:30;;;;;;;5.37;4.57;;;;;;;12.80;75.71;99227.50;4192909;28;20724;-89
2023/02/20 08:50:33;;;;;;;7.40;3.93;;;;;;;12.90;77.29;99221.66;4201206;28;20631;-88
2023/02/20 08:52:36;;;;;;;5.20;4.63;;;;;;;13.07;76.15;99224.09;4192047;28;21182;-89
2023/02/20 08:54:44;;;;;;;5.80;4.40;;;;;;;13.11;75.21;99224.75;4207529;28;21111;-88
2023/02/20 08:56:50;;;;;;;9.73;6.00;;;;;;;13.06;76.46;99226.81;4206470;28;20630;-89
2023/02/20 08:58:53;;;;;;;7.27;4.40;;;;;;;13.13;75.53;99228.97;4221507;28;20667;-89
2023/02/20 09:00:57;;;;;;;9.10;5.30;;;;;;;13.26;76.63;99228.13;4202059;28;21244;-88
2023/02/20 09:03:00;;;;;;;8.20;4.50;;;;;;;13.32;74.78;99224.28;4187286;28;20631;-89
2023/02/20 09:05:03;;;;;;;9.67;5.27;;;;;;;13.41;75.04;99228.97;4215874;28;20984;-89
2023/02/20 09:07:10;;;;;;;7.73;4.80;;;;;;;13.44;73.46;99236.63;4197667;28;21220;-89
2023/02/20 09:09:13;;;;;;;6.23;4.10;;;;;;;13.47;73.83;99223.34;4198820;28;21269;-88
2023/02/20 09:11:18;;;;;;;7.67;4.80;;;;;;;13.55;73.99;99229.81;4217624;28;20667;-89
2023/02/20 09:13:21;;;;;;;10.57;4.93;;;;;;;13.61;74.28;99218.13;4186678;28;20679;-89
2023/02/20 09:15:24;;;;;;;7.83;4.67;;;;;;;13.80;74.19;99216.84;4181059;28;20692;-89
2023/02/20 09:17:29;;;;;;;7.37;4.33;;;;;;;13.86;73.95;99219.06;4205233;28;20607;-89
2023/02/20 09:19:32;;;;;;;7.67;4.43;;;;;;;13.93;72.92;99217.75;4204359;28;20634;-89
2023/02/20 09:21:36;;;;;;;8.83;4.47;;;;;;;14.07;73.51;99217.75;4208479;28;20626;-89
2023/02/20 09:23:39;;;;;;;7.93;4.27;;;;;;;14.25;74.07;99210.38;4205914;28;21251;-89
2023/02/20 09:25:43;;;;;;;6.17;3.90;;;;;;;14.48;73.10;99214.09;4222855;28;20650;-89
2023/02/20 09:27:47;;;;;;;7.27;3.67;;;;;;;14.56;72.46;99217.06;4188236;28;20726;-88
2023/02/20 09:29:50;;;;;;;4.73;2.90;;;;;;;14.69;72.01;99211.75;4203810;28;20617;-89
2023/02/20 09:31:54;;;;;;;5.57;3.70;;;;;;;14.67;70.00;99205.75;4219746;28;20714;-89
2023/02/20 09:33:57;;;;;;;8.30;4.73;;;;;;;14.59;70.13;99200.16;4204960;28;20686;-89
2023/02/20 09:36:00;;;;;;;7.67;3.90;;;;;;;14.58;70.16;99209.94;4205616;28;21277;-89
2023/02/20 09:38:05;;;;;;;7.57;3.80;;;;;;;14.53;70.94;99202.34;4207456;28;21046;-89
2023/02/20 09:40:10;;;;;;;6.43;4.37;;;;;;;14.56;69.07;99202.16;4191319;28;20637;-89
2023/02/20 09:42:23;;;;;;;7.43;4.30;;;;;;;14.75;70.30;99200.00;4193979;28;20640;-89
2023/02/20 09:44:32;;;;;;;5.17;3.70;;;;;;;14.83;70.37;99189.81;4191580;28;21029;-89
2023/02/20 09:46:36;;;;;;;4.90;3.70;;;;;;;14.75;69.45;99190.31;4197124;28;20639;-89
2023/02/20 09:48:58;;;;;;;8.10;4.20;;;;;;;14.38;69.61;99174.50;4184688;28;21292;-89
2023/02/20 09:51:03;;;;;;;6.83;3.60;;;;;;;14.32;70.85;99164.41;4199139;28;20644;-89
2023/02/20 09:53:16;;;;;;;11.00;4.40;;;;;;;14.49;71.65;99166.75;4219708;28;20676;-89
2023/02/20 09:55:21;;;;;;;6.50;3.87;;;;;;;14.67;69.28;99176.88;4211205;28;21225;-89
2023/02/20 09:57:26;;;;;;;7.00;3.87;;;;;;;14.79;71.29;99168.16;4193973;28;21077;-89
2023/02/20 09:59:33;;;;;;;10.80;4.83;;;;;;;14.82;70.78;99167.09;4226054;28;21279;-89
2023/02/20 10:01:40;;;;;;;5.37;3.80;;;;;;;14.84;72.32;99159.94;4206455;28;20742;-88
2023/02/20 10:03:53;;;;;;;6.43;4.00;;;;;;;14.71;67.99;99164.38;4220122;28;20663;-88
2023/02/20 10:05:57;;;;;;;5.53;3.53;;;;;;;14.61;70.60;99160.66;4189982;28;20648;-89
2023/02/20 10:08:00;;;;;;;7.33;4.00;;;;;;;14.56;69.15;99154.06;4207577;28;20632;-89
2023/02/20 10:10:17;;;;;;;4.70;3.90;;;;;;;14.57;69.93;99160.97;4193768;28;20633;-88
2023/02/20 10:12:25;;;;;;;7.60;3.97;;;;;;;14.57;70.10;99161.84;4215411;28;20627;-89